createdAt,value
2023-06-19T04:09:31.942Z,17.20
2023-06-19T04:11:58.950Z,16.90
2023-06-19T04:14:25.891Z,17.20
2023-06-19T04:16:53.200Z,17.30
2023-06-19T04:19:20.186Z,17.30
2023-06-19T04:21:47.115Z,17.30
2023-06-19T04:24:13.996Z,17.30
2023-06-19T04:26:41.793Z,17.40
2023-06-19T04:29:08.926Z,17.50
2023-06-19T04:31:42.923Z,17.50
2023-06-19T04:34:10.022Z,17.60
2023-06-19T04:36:36.920Z,17.60
2023-06-19T04:39:04.182Z,17.70
2023-06-19T04:41:31.024Z,17.80
2023-06-19T04:43:58.119Z,18.00
2023-06-19T04:51:55.900Z,18.30
2023-06-19T05:34:54.998Z,20.00
2023-06-19T05:50:58.645Z,20.50
2023-06-19T05:53:26.522Z,20.60
2023-06-19T05:55:53.506Z,20.70
2023-06-19T05:58:25.114Z,20.90
2023-06-19T06:00:58.708Z,21.00
2023-06-19T06:03:26.677Z,21.10
2023-06-19T06:05:54.106Z,21.10
2023-06-19T06:08:21.046Z,21.50
2023-06-19T06:10:48.355Z,21.50
2023-06-19T06:13:15.700Z,21.60
2023-06-19T06:18:17.987Z,21.60
2023-06-19T06:23:20.319Z,21.80
2023-06-19T06:25:47.452Z,21.80
2023-06-19T06:28:14.430Z,21.90
2023-06-19T06:30:41.379Z,22.00
2023-06-19T06:33:08.264Z,22.10
2023-06-19T06:35:36.948Z,22.20
2023-06-19T06:38:04.131Z,22.30
2023-06-19T06:40:31.248Z,22.50
2023-06-19T06:42:58.671Z,22.50
2023-06-19T06:45:28.055Z,22.70
2023-06-19T06:47:55.310Z,22.80
2023-06-19T06:50:22.953Z,23.00
2023-06-19T06:52:50.136Z,23.20
2023-06-19T06:55:17.051Z,23.30
2023-06-19T06:57:43.987Z,23.40
2023-06-19T07:00:12.554Z,23.50
2023-06-19T07:02:41.519Z,23.50
2023-06-19T07:05:09.894Z,23.60
2023-06-19T07:07:37.008Z,23.70
2023-06-19T07:10:04.246Z,23.90
2023-06-19T07:12:31.167Z,23.90
2023-06-19T07:14:58.101Z,23.90
2023-06-19T07:17:25.194Z,24.10
2023-06-19T07:19:52.561Z,24.20
2023-06-19T07:22:19.504Z,24.30
2023-06-19T07:24:46.895Z,24.40
2023-06-19T07:27:14.185Z,24.40
2023-06-19T07:29:41.052Z,24.50
2023-06-19T07:32:08.507Z,24.60
2023-06-19T07:34:35.365Z,24.80
2023-06-19T07:37:02.811Z,25.00
2023-06-19T07:39:29.780Z,25.10
2023-06-19T07:41:57.096Z,25.20
2023-06-19T07:44:24.028Z,25.30
2023-06-19T07:46:51.283Z,25.30
2023-06-19T07:49:18.646Z,25.40
2023-06-19T07:51:45.685Z,25.60
2023-06-19T07:54:12.588Z,25.60
2023-06-19T07:56:39.676Z,25.70
2023-06-19T07:59:06.960Z,25.90
2023-06-19T08:01:33.913Z,26.00
2023-06-19T08:04:00.860Z,26.00
2023-06-19T08:06:27.754Z,26.00
2023-06-19T08:08:55.221Z,26.10
2023-06-19T08:11:22.452Z,26.10
2023-06-19T08:13:49.358Z,26.20
2023-06-19T08:16:16.805Z,26.30
2023-06-19T08:18:44.775Z,26.30
2023-06-19T08:21:12.051Z,26.40
2023-06-19T08:23:40.573Z,26.40
2023-06-19T08:26:09.125Z,26.40
2023-06-19T08:28:36.800Z,26.50
2023-06-19T08:31:04.151Z,26.50
2023-06-19T08:33:31.387Z,26.50
2023-06-19T08:35:58.297Z,26.60
2023-06-19T08:38:25.157Z,26.70
2023-06-19T08:40:52.098Z,26.80
2023-06-19T08:43:19.134Z,26.80
2023-06-19T08:46:17.202Z,26.90
2023-06-19T08:48:45.691Z,27.00
2023-06-19T08:51:14.364Z,27.20
2023-06-19T08:53:55.958Z,27.30
2023-06-19T08:56:23.340Z,27.40
2023-06-19T08:58:50.286Z,27.50
2023-06-19T09:01:20.934Z,27.70
2023-06-19T09:03:53.247Z,27.90
2023-06-19T09:06:20.637Z,27.90
2023-06-19T09:08:59.536Z,28.00
2023-06-19T09:11:26.515Z,28.10
2023-06-19T09:13:59.763Z,28.10
2023-06-19T09:16:41.026Z,28.20
2023-06-19T09:19:08.233Z,28.30
2023-06-19T09:21:38.593Z,28.30
2023-06-19T09:24:07.114Z,28.40
2023-06-19T09:26:35.307Z,28.40
2023-06-19T09:29:19.585Z,28.50
2023-06-19T09:31:48.871Z,28.60
2023-06-19T09:34:15.894Z,28.70
2023-06-19T09:36:45.216Z,28.70
2023-06-19T09:39:14.556Z,28.90
2023-06-19T09:41:43.679Z,29.00
2023-06-19T09:44:13.992Z,29.10
2023-06-19T09:46:46.142Z,29.20
2023-06-19T09:49:14.871Z,29.40
2023-06-19T09:51:44.036Z,29.60
2023-06-19T09:54:11.762Z,29.50
2023-06-19T09:56:39.421Z,29.60
2023-06-19T09:59:10.564Z,29.80
2023-06-19T10:01:38.414Z,29.80
2023-06-19T10:04:09.869Z,29.80
2023-06-19T10:06:47.226Z,29.90
2023-06-19T10:09:19.231Z,29.90
2023-06-19T10:11:48.536Z,29.60
2023-06-19T10:14:15.801Z,29.40
2023-06-19T10:16:44.209Z,29.60
2023-06-19T10:19:18.921Z,29.40
2023-06-19T10:21:50.758Z,29.40
2023-06-19T10:24:21.097Z,29.60
2023-06-19T10:27:02.724Z,29.70
2023-06-19T10:29:44.370Z,30.00
2023-06-19T10:32:20.210Z,30.10
2023-06-19T10:34:50.132Z,30.20
2023-06-19T10:37:17.771Z,30.00
2023-06-19T10:39:45.739Z,30.10
2023-06-19T10:42:13.104Z,30.10
2023-06-19T10:44:39.999Z,30.30
2023-06-19T10:47:08.552Z,30.40
2023-06-19T10:49:36.548Z,30.60
2023-06-19T10:52:03.600Z,30.80
2023-06-19T10:54:31.042Z,30.90
2023-06-19T10:56:58.682Z,31.10
2023-06-19T10:59:26.063Z,31.20
2023-06-19T11:01:54.002Z,31.20
2023-06-19T11:04:20.905Z,31.00
2023-06-19T11:06:48.931Z,30.80
2023-06-19T11:09:16.257Z,30.80
2023-06-19T11:11:45.592Z,30.90
2023-06-19T11:14:14.129Z,30.90
2023-06-19T11:16:48.974Z,31.10
2023-06-19T11:19:18.598Z,31.50
2023-06-19T11:21:53.102Z,31.60
2023-06-19T11:24:21.451Z,31.70
2023-06-19T11:26:51.515Z,31.40
2023-06-19T11:29:26.788Z,31.30
2023-06-19T11:32:06.178Z,31.30
2023-06-19T11:34:34.833Z,31.50
2023-06-19T11:37:01.835Z,31.60
2023-06-19T11:39:30.231Z,31.60
2023-06-19T11:42:01.017Z,31.70
2023-06-19T11:44:27.989Z,31.80
2023-06-19T11:46:59.196Z,32.00
2023-06-19T11:49:26.142Z,32.10
2023-06-19T11:51:54.558Z,32.10
2023-06-19T11:54:22.029Z,32.20
2023-06-19T11:56:49.342Z,32.50
2023-06-19T11:59:16.478Z,32.40
2023-06-19T12:01:43.397Z,32.40
2023-06-19T12:04:10.471Z,32.60
2023-06-19T12:06:38.435Z,32.60
2023-06-19T12:09:06.623Z,32.50
2023-06-19T12:11:33.587Z,32.60
2023-06-19T12:14:00.944Z,32.70
2023-06-19T12:16:30.124Z,32.70
2023-06-19T12:18:57.428Z,32.60
2023-06-19T12:21:34.846Z,32.60
2023-06-19T12:24:03.426Z,32.80
2023-06-19T12:26:30.848Z,33.10
2023-06-19T12:28:58.092Z,33.50
2023-06-19T12:31:25.120Z,33.60
2023-06-19T12:33:52.662Z,33.90
2023-06-19T12:36:19.726Z,34.30
2023-06-19T12:38:48.986Z,34.40
2023-06-19T12:41:16.327Z,34.20
2023-06-19T12:43:43.741Z,34.30
2023-06-19T12:46:11.295Z,34.00
2023-06-19T12:48:39.082Z,34.20
2023-06-19T12:51:06.080Z,34.50
2023-06-19T12:53:33.491Z,34.60
2023-06-19T12:56:03.048Z,34.90
2023-06-19T12:58:33.855Z,35.10
2023-06-19T13:01:01.159Z,35.30
2023-06-19T13:03:28.685Z,35.20
2023-06-19T13:05:55.729Z,35.70
2023-06-19T13:08:22.642Z,35.80
2023-06-19T13:10:49.509Z,35.80
2023-06-19T13:13:16.464Z,36.10
2023-06-19T13:15:43.543Z,36.40
2023-06-19T13:18:10.671Z,36.70
2023-06-19T13:20:37.674Z,37.30
2023-06-19T13:23:04.509Z,38.40
2023-06-19T13:25:33.797Z,39.70
2023-06-19T13:28:00.820Z,40.60
2023-06-19T13:30:27.757Z,40.70
2023-06-19T13:32:54.712Z,40.20
2023-06-19T13:35:22.495Z,40.60
2023-06-19T13:37:49.900Z,41.80
2023-06-19T13:40:16.977Z,42.50
2023-06-19T13:42:43.882Z,43.60
2023-06-19T13:45:11.280Z,45.20
2023-06-19T13:47:38.529Z,45.70
2023-06-19T13:50:06.196Z,45.70
2023-06-19T13:52:33.185Z,46.30
2023-06-19T13:55:00.497Z,46.70
2023-06-19T13:57:27.366Z,46.80
2023-06-19T13:59:54.330Z,47.90
2023-06-19T14:02:21.443Z,48.20
2023-06-19T14:04:51.564Z,48.60
2023-06-19T14:07:19.868Z,49.10
2023-06-19T14:09:46.762Z,50.10
2023-06-19T14:12:14.008Z,49.30
2023-06-19T14:14:40.905Z,48.10
2023-06-19T14:17:08.433Z,48.20
2023-06-19T14:19:35.385Z,48.40
2023-06-19T14:22:03.311Z,48.80
2023-06-19T14:24:30.226Z,49.90
2023-06-19T14:26:57.149Z,50.20
2023-06-19T14:29:25.013Z,51.10
2023-06-19T14:31:54.882Z,51.50
2023-06-19T14:34:21.939Z,52.10
2023-06-19T14:36:49.093Z,52.30
2023-06-19T14:39:16.478Z,52.80
2023-06-19T14:41:43.578Z,52.70
2023-06-19T14:44:10.521Z,53.30
2023-06-19T14:46:40.558Z,53.60
2023-06-19T14:49:08.738Z,53.40
2023-06-19T14:51:35.659Z,53.50
2023-06-19T14:54:03.672Z,53.80
2023-06-19T14:56:30.746Z,55.30
2023-06-19T14:58:57.724Z,53.90
2023-06-19T15:01:24.772Z,52.00
2023-06-19T15:03:51.763Z,52.30
2023-06-19T15:06:18.786Z,52.30
2023-06-19T15:08:45.632Z,52.90
2023-06-19T15:11:12.598Z,51.60
2023-06-19T15:13:39.868Z,50.10
2023-06-19T15:16:09.038Z,49.90
2023-06-19T15:18:36.302Z,50.80
2023-06-19T15:21:03.296Z,51.10
2023-06-19T15:23:30.560Z,50.10
2023-06-19T15:25:57.459Z,50.80
2023-06-19T15:28:24.393Z,51.10
2023-06-19T15:30:51.681Z,50.00
2023-06-19T15:33:19.308Z,51.40
2023-06-19T15:35:48.576Z,50.90
2023-06-19T15:38:15.952Z,50.50
2023-06-19T15:40:43.411Z,50.00
2023-06-19T15:43:11.074Z,50.80
2023-06-19T15:45:38.534Z,50.60
2023-06-19T15:48:06.794Z,50.40
2023-06-19T15:50:34.259Z,49.40
2023-06-19T15:53:01.738Z,49.90
2023-06-19T15:55:29.027Z,49.90
2023-06-19T15:57:56.615Z,49.80
2023-06-19T16:00:25.611Z,49.00
2023-06-19T16:02:52.840Z,48.70
2023-06-19T16:05:19.914Z,49.20
2023-06-19T16:07:46.829Z,49.70
2023-06-19T16:10:16.873Z,49.90
2023-06-19T16:12:44.041Z,48.90
2023-06-19T16:15:14.321Z,49.00
2023-06-19T16:17:41.580Z,49.00
2023-06-19T16:20:09.720Z,48.30
2023-06-19T16:22:36.646Z,48.30
2023-06-19T16:25:04.214Z,49.00
2023-06-19T16:27:31.184Z,48.40
2023-06-19T16:29:58.265Z,48.30
2023-06-19T16:32:25.633Z,48.10
2023-06-19T16:34:53.024Z,47.60
2023-06-19T16:37:20.000Z,47.50
2023-06-19T16:39:46.916Z,47.90
2023-06-19T16:42:16.601Z,47.90
2023-06-19T16:44:43.824Z,47.70
2023-06-19T16:47:10.889Z,47.40
2023-06-19T16:49:38.312Z,47.40
2023-06-19T16:52:05.647Z,47.10
2023-06-19T16:54:32.699Z,46.80
2023-06-19T16:57:00.870Z,45.90
2023-06-19T16:59:27.825Z,45.50
2023-06-19T17:01:54.816Z,44.80
2023-06-19T17:04:21.756Z,44.70
2023-06-19T17:06:48.639Z,44.80
2023-06-19T17:09:15.958Z,44.80
2023-06-19T17:11:43.275Z,44.40
2023-06-19T17:14:10.628Z,44.10
2023-06-19T17:16:37.748Z,43.80
2023-06-19T17:19:06.625Z,43.50
2023-06-19T17:21:33.869Z,43.40
2023-06-19T17:24:01.268Z,43.20
2023-06-19T17:26:28.230Z,42.80
2023-06-19T17:28:55.255Z,42.50
2023-06-19T17:31:22.144Z,42.00
2023-06-19T17:33:49.090Z,40.90
2023-06-19T17:36:16.051Z,40.30
2023-06-19T17:38:43.480Z,40.20
2023-06-19T17:41:10.856Z,39.60
2023-06-19T17:43:38.179Z,39.30
2023-06-19T17:46:05.150Z,39.10
2023-06-19T17:48:32.485Z,38.50
2023-06-19T17:50:59.776Z,38.20
2023-06-19T17:53:26.794Z,37.80
2023-06-19T17:55:54.046Z,37.40
2023-06-19T17:58:22.672Z,36.70
2023-06-19T18:00:49.938Z,36.20
2023-06-19T18:03:17.086Z,35.70
2023-06-19T18:05:44.453Z,35.30
2023-06-19T18:08:11.370Z,34.60
2023-06-19T18:10:38.831Z,33.70
2023-06-19T18:13:05.833Z,32.90
2023-06-19T18:15:32.933Z,32.20
2023-06-19T18:18:00.327Z,31.60
2023-06-19T18:20:27.523Z,30.90
2023-06-19T18:22:54.702Z,30.40
2023-06-19T18:25:21.561Z,30.20
2023-06-19T18:27:48.553Z,29.90
2023-06-19T18:30:15.956Z,29.60
2023-06-19T18:32:42.870Z,29.30
2023-06-19T18:35:10.086Z,29.10
2023-06-19T18:37:37.110Z,28.90
2023-06-19T18:40:05.713Z,28.60
2023-06-19T18:42:32.698Z,28.30
2023-06-19T18:44:59.632Z,28.10
2023-06-19T18:47:26.974Z,27.90
2023-06-19T18:49:54.367Z,27.80
2023-06-19T18:52:21.732Z,27.60
2023-06-19T18:54:51.599Z,27.60
2023-06-19T18:57:18.504Z,27.40
2023-06-19T18:59:45.461Z,27.00
2023-06-19T19:02:12.882Z,26.80
2023-06-19T19:04:42.837Z,26.60
2023-06-19T19:07:10.239Z,26.40
2023-06-19T19:09:38.491Z,26.20
2023-06-19T19:12:05.746Z,26.10
2023-06-19T19:14:32.689Z,26.00
2023-06-19T19:16:59.729Z,25.90
2023-06-19T19:19:28.416Z,26.00
2023-06-19T19:21:55.844Z,25.80
2023-06-19T19:24:24.260Z,25.70
2023-06-19T19:26:51.412Z,25.60
2023-06-19T19:29:18.474Z,25.50
2023-06-19T19:31:45.332Z,25.60
2023-06-19T19:34:19.833Z,25.60
2023-06-19T19:36:47.551Z,25.60
2023-06-19T19:39:14.715Z,25.50
2023-06-19T19:41:47.871Z,25.30
2023-06-19T19:44:14.906Z,25.30
2023-06-19T19:46:42.070Z,25.10
2023-06-19T19:49:09.307Z,25.00
2023-06-19T19:51:36.923Z,24.90
2023-06-19T19:54:04.570Z,24.80
2023-06-19T19:56:31.529Z,24.80
2023-06-19T19:58:58.568Z,24.80
2023-06-19T20:01:25.562Z,24.70
2023-06-19T20:03:52.957Z,24.70
2023-06-19T20:06:20.060Z,24.70
2023-06-19T20:08:47.815Z,24.80
2023-06-19T20:11:15.314Z,24.60
2023-06-19T20:13:42.262Z,24.60
2023-06-19T20:16:12.860Z,24.60
2023-06-19T20:18:40.270Z,24.50
2023-06-19T20:21:07.356Z,24.40
2023-06-19T20:23:34.253Z,24.30
2023-06-19T20:26:01.813Z,24.30
2023-06-19T20:28:29.069Z,24.20
2023-06-19T20:30:55.927Z,24.20
2023-06-19T20:33:23.768Z,24.20
2023-06-19T20:35:51.263Z,24.20
2023-06-19T20:38:21.200Z,24.20
2023-06-19T20:40:48.901Z,24.20
2023-06-19T20:43:15.968Z,24.20
2023-06-19T20:45:43.634Z,24.10
2023-06-19T20:48:10.879Z,24.10
2023-06-19T20:50:37.880Z,24.00
2023-06-19T20:53:07.201Z,24.00
2023-06-19T20:55:34.165Z,23.90
2023-06-19T20:58:05.806Z,23.90
2023-06-19T21:00:33.123Z,23.80
2023-06-19T21:03:01.326Z,23.70
2023-06-19T21:05:28.540Z,23.70
2023-06-19T21:07:55.995Z,23.60
2023-06-19T21:10:24.117Z,23.60
2023-06-19T21:12:51.213Z,23.50
2023-06-19T21:15:18.185Z,23.50
2023-06-19T21:17:45.169Z,23.50
2023-06-19T21:20:12.298Z,23.50
2023-06-19T21:22:40.511Z,23.50
2023-06-19T21:25:08.160Z,23.30
2023-06-19T21:27:35.620Z,23.30
2023-06-19T21:30:03.844Z,23.30
2023-06-19T21:32:30.784Z,23.20
2023-06-19T21:34:58.315Z,23.20
2023-06-19T21:37:25.241Z,23.20
2023-06-19T21:39:52.157Z,23.30
2023-06-19T21:42:19.081Z,23.20
2023-06-19T21:44:46.234Z,23.10
2023-06-19T21:47:13.138Z,23.00
2023-06-19T21:49:40.682Z,22.90
2023-06-19T21:52:08.376Z,23.00
2023-06-19T21:54:35.326Z,22.90
2023-06-19T21:57:02.680Z,22.90
2023-06-19T21:59:29.569Z,22.80
2023-06-19T22:01:56.503Z,22.70
2023-06-19T22:04:23.560Z,22.70
2023-06-19T22:06:50.459Z,22.60
2023-06-19T22:09:17.788Z,22.60
2023-06-19T22:11:44.674Z,22.60
2023-06-19T22:14:11.754Z,22.60
2023-06-19T22:16:38.750Z,22.60
2023-06-19T22:19:06.104Z,22.50
2023-06-19T22:21:32.998Z,22.50
2023-06-19T22:23:59.972Z,22.50
2023-06-19T22:26:26.895Z,22.40
2023-06-19T22:28:54.195Z,22.40
2023-06-19T22:31:21.574Z,22.30
2023-06-19T22:33:48.861Z,22.20
2023-06-19T22:36:15.806Z,22.20
2023-06-19T22:38:42.716Z,22.10
2023-06-19T22:41:09.722Z,22.20
2023-06-19T22:43:36.669Z,22.10
2023-06-19T22:46:05.093Z,22.10
2023-06-19T22:48:32.253Z,22.00
2023-06-19T22:50:59.397Z,22.10
2023-06-19T22:53:27.162Z,22.10
2023-06-19T22:55:54.262Z,22.10
2023-06-19T22:58:21.170Z,22.10
2023-06-19T23:00:48.473Z,22.00
2023-06-19T23:03:15.885Z,22.10
2023-06-19T23:05:42.842Z,22.10
2023-06-19T23:08:09.772Z,22.10
2023-06-19T23:10:36.639Z,21.90
2023-06-19T23:13:03.521Z,21.90
2023-06-19T23:15:30.358Z,21.90
2023-06-19T23:17:57.352Z,22.00
2023-06-19T23:20:24.328Z,21.80
2023-06-19T23:22:51.206Z,21.90
2023-06-19T23:25:18.161Z,21.80
2023-06-19T23:27:45.412Z,21.80
2023-06-19T23:30:12.992Z,21.70
2023-06-19T23:32:39.911Z,21.60
2023-06-19T23:35:07.114Z,21.70
2023-06-19T23:48:35.369Z,21.40
2023-06-19T23:51:02.594Z,21.30
2023-06-19T23:58:50.215Z,21.40
